createdAt,value
2023-01-19T00:00:53.213Z,100192.75
2023-01-19T00:03:19.614Z,100188.25
2023-01-19T00:05:46.295Z,100192.75
2023-01-19T00:08:15.762Z,100187.66
2023-01-19T00:10:44.875Z,100187.00
2023-01-19T00:13:13.232Z,100182.28
2023-01-19T00:15:39.668Z,100186.56
2023-01-19T00:18:06.122Z,100174.13
2023-01-19T00:20:32.901Z,100176.78
2023-01-19T00:22:59.678Z,100191.84
2023-01-19T00:25:26.419Z,100194.72
2023-01-19T00:27:52.940Z,100204.78
2023-01-19T00:30:19.476Z,100196.59
2023-01-19T00:32:45.820Z,100191.22
2023-01-19T00:35:12.242Z,100189.03
2023-01-19T00:37:38.703Z,100201.28
2023-01-19T00:40:05.688Z,100201.50
2023-01-19T00:42:40.927Z,100188.69
2023-01-19T00:45:09.212Z,100196.81
2023-01-19T00:47:35.646Z,100186.34
2023-01-19T00:50:02.248Z,100183.13
2023-01-19T00:52:28.688Z,100173.59
2023-01-19T00:54:55.069Z,100186.34
2023-01-19T00:57:21.575Z,100187.72
2023-01-19T00:59:47.949Z,100183.03
2023-01-19T01:02:14.746Z,100179.13
2023-01-19T01:04:41.367Z,100176.84
2023-01-19T01:07:07.927Z,100180.00
2023-01-19T01:09:34.292Z,100178.75
2023-01-19T01:12:00.645Z,100170.38
2023-01-19T01:14:27.093Z,100169.16
2023-01-19T01:16:53.632Z,100168.91
2023-01-19T01:19:20.495Z,100179.72
2023-01-19T01:21:46.956Z,100182.34
2023-01-19T01:24:13.313Z,100172.44
2023-01-19T01:26:40.765Z,100180.44
2023-01-19T01:29:08.353Z,100181.78
2023-01-19T01:31:34.873Z,100181.41
2023-01-19T01:34:01.395Z,100181.84
2023-01-19T01:36:31.690Z,100182.44
2023-01-19T01:38:58.275Z,100182.44
2023-01-19T01:41:25.948Z,100184.84
2023-01-19T01:43:58.489Z,100191.75
2023-01-19T01:46:26.632Z,100188.53
2023-01-19T01:49:11.911Z,100190.13
2023-01-19T01:51:40.100Z,100188.09
2023-01-19T01:54:24.528Z,100191.09
2023-01-19T01:56:54.194Z,100187.22
2023-01-19T01:59:26.211Z,100179.41
2023-01-19T02:02:14.192Z,100181.63
2023-01-19T02:04:47.536Z,100187.25
2023-01-19T02:07:40.028Z,100193.47
2023-01-19T02:10:25.364Z,100193.63
2023-01-19T02:13:10.543Z,100194.81
2023-01-19T02:15:36.874Z,100196.97
2023-01-19T02:18:03.707Z,100204.00
2023-01-19T02:20:32.956Z,100197.25
2023-01-19T02:23:03.779Z,100198.78
2023-01-19T02:25:30.645Z,100198.09
2023-01-19T02:27:57.047Z,100198.22
2023-01-19T02:30:24.129Z,100201.44
2023-01-19T02:32:50.604Z,100202.38
2023-01-19T02:35:17.224Z,100211.72
2023-01-19T02:37:44.638Z,100212.66
2023-01-19T02:40:14.459Z,100225.75
2023-01-19T02:42:46.329Z,100220.00
2023-01-19T02:45:16.727Z,100218.53
2023-01-19T02:47:46.351Z,100222.19
2023-01-19T02:50:38.225Z,100230.94
2023-01-19T02:53:19.797Z,100234.63
2023-01-19T02:55:54.712Z,100238.06
2023-01-19T02:59:05.932Z,100245.78
2023-01-19T03:01:46.710Z,100240.25
2023-01-19T03:04:13.680Z,100246.13
2023-01-19T03:06:53.144Z,100249.56
2023-01-19T03:09:38.425Z,100254.84
2023-01-19T03:12:13.816Z,100265.44
2023-01-19T03:14:46.139Z,100260.16
2023-01-19T03:17:17.027Z,100265.44
2023-01-19T03:19:48.009Z,100248.53
2023-01-19T03:22:27.316Z,100249.38
2023-01-19T03:24:57.026Z,100252.00
2023-01-19T03:27:31.160Z,100258.91
2023-01-19T03:30:07.712Z,100259.94
2023-01-19T03:32:41.019Z,100262.59
2023-01-19T03:35:11.795Z,100260.03
2023-01-19T03:37:43.310Z,100270.19
2023-01-19T03:40:11.140Z,100267.53
2023-01-19T03:42:39.086Z,100267.78
2023-01-19T03:45:06.330Z,100262.94
2023-01-19T03:47:33.807Z,100263.13
2023-01-19T03:50:03.554Z,100277.41
2023-01-19T03:52:34.910Z,100286.59
2023-01-19T03:55:02.329Z,100281.53
2023-01-19T03:57:28.735Z,100283.00
2023-01-19T03:59:55.839Z,100281.63
2023-01-19T04:02:22.736Z,100312.53
2023-01-19T04:04:49.203Z,100303.22
2023-01-19T04:07:15.738Z,100302.28
2023-01-19T04:09:42.159Z,100300.75
2023-01-19T04:12:09.004Z,100302.00
2023-01-19T04:14:35.618Z,100298.19
2023-01-19T04:17:02.008Z,100291.97
2023-01-19T04:19:28.572Z,100302.38
2023-01-19T04:21:55.644Z,100297.75
2023-01-19T04:24:22.185Z,100295.56
2023-01-19T04:26:51.782Z,100295.22
2023-01-19T04:29:18.304Z,100295.88
2023-01-19T04:31:44.697Z,100293.91
2023-01-19T04:34:11.186Z,100296.19
2023-01-19T04:36:37.581Z,100304.09
2023-01-19T04:39:05.019Z,100310.41
2023-01-19T04:41:31.720Z,100313.47
2023-01-19T04:43:58.246Z,100319.00
2023-01-19T04:46:24.820Z,100317.59
2023-01-19T04:48:51.363Z,100313.31
2023-01-19T04:51:17.940Z,100317.03
2023-01-19T04:53:44.462Z,100322.50
2023-01-19T04:56:11.005Z,100317.22
2023-01-19T04:58:37.398Z,100320.09
2023-01-19T05:01:08.121Z,100331.69
2023-01-19T05:03:34.529Z,100336.38
2023-01-19T05:06:00.983Z,100346.69
2023-01-19T05:08:27.379Z,100341.22
2023-01-19T05:10:53.855Z,100346.69
2023-01-19T05:13:20.281Z,100353.59
2023-01-19T05:15:46.761Z,100359.91
2023-01-19T05:18:13.231Z,100357.25
2023-01-19T05:20:40.129Z,100359.34
2023-01-19T05:23:06.675Z,100350.16
2023-01-19T05:25:33.125Z,100359.47
2023-01-19T05:27:59.626Z,100350.53
2023-01-19T05:30:26.031Z,100358.44
2023-01-19T05:32:52.549Z,100359.03
2023-01-19T05:35:27.805Z,100357.19
2023-01-19T05:37:57.916Z,100364.09
2023-01-19T05:40:24.284Z,100363.88
2023-01-19T05:42:50.684Z,100371.34
2023-01-19T05:45:17.195Z,100372.97
2023-01-19T05:47:43.673Z,100388.63
2023-01-19T05:50:10.537Z,100392.41
2023-01-19T05:52:37.049Z,100372.09
2023-01-19T05:55:03.700Z,100379.16
2023-01-19T05:57:30.217Z,100384.72
2023-01-19T05:59:56.695Z,100394.06
2023-01-19T06:02:28.489Z,100393.47
2023-01-19T06:04:55.451Z,100399.19
2023-01-19T06:07:24.271Z,100392.97
2023-01-19T06:09:50.891Z,100403.38
2023-01-19T06:12:17.408Z,100407.50
2023-01-19T06:14:43.885Z,100405.94
2023-01-19T06:17:10.313Z,100405.56
2023-01-19T06:19:36.810Z,100419.22
2023-01-19T06:22:03.361Z,100430.00
2023-01-19T06:24:29.893Z,100427.16
2023-01-19T06:26:56.290Z,100420.59
2023-01-19T06:29:23.144Z,100432.13
2023-01-19T06:31:49.735Z,100443.66
2023-01-19T06:34:16.328Z,100449.31
2023-01-19T06:36:42.763Z,100464.50
2023-01-19T06:39:10.661Z,100466.13
2023-01-19T06:41:37.520Z,100469.16
2023-01-19T06:44:04.847Z,100466.28
2023-01-19T06:46:32.057Z,100462.84
2023-01-19T06:48:58.480Z,100469.34
2023-01-19T06:51:25.531Z,100471.81
2023-01-19T06:53:51.942Z,100465.91
2023-01-19T06:56:18.499Z,100474.66
2023-01-19T06:58:47.549Z,100480.34
2023-01-19T07:01:14.534Z,100482.81
2023-01-19T07:03:40.983Z,100477.72
2023-01-19T07:06:07.969Z,100487.72
2023-01-19T07:08:37.972Z,100482.88
2023-01-19T07:11:23.118Z,100496.28
2023-01-19T07:13:57.043Z,100501.78
2023-01-19T07:16:23.845Z,100503.25
2023-01-19T07:18:50.808Z,100505.50
2023-01-19T07:21:17.865Z,100505.56
2023-01-19T07:23:44.446Z,100510.69
2023-01-19T07:26:10.995Z,100514.56
2023-01-19T07:28:37.726Z,100519.47
2023-01-19T07:31:04.458Z,100529.44
2023-01-19T07:33:30.945Z,100529.28
2023-01-19T07:35:57.472Z,100533.78
2023-01-19T07:38:23.866Z,100537.25
2023-01-19T07:40:50.257Z,100538.66
2023-01-19T07:43:16.912Z,100543.94
2023-01-19T07:45:44.924Z,100542.91
2023-01-19T07:48:11.464Z,100554.06
2023-01-19T07:50:37.928Z,100548.34
2023-01-19T07:53:09.129Z,100556.88
2023-01-19T07:55:35.825Z,100561.13
2023-01-19T07:58:06.429Z,100569.06
2023-01-19T08:00:35.264Z,100561.34
2023-01-19T08:03:03.699Z,100573.16
2023-01-19T08:05:31.462Z,100579.06
2023-01-19T08:07:59.093Z,100583.16
2023-01-19T08:10:27.187Z,100594.56
2023-01-19T08:12:54.666Z,100598.84
2023-01-19T08:15:23.923Z,100602.13
2023-01-19T08:18:00.943Z,100605.19
2023-01-19T08:20:28.865Z,100609.66
2023-01-19T08:23:00.235Z,100607.81
2023-01-19T08:25:39.420Z,100613.31
2023-01-19T08:28:07.378Z,100615.59
2023-01-19T08:30:34.775Z,100618.78
2023-01-19T08:33:07.208Z,100619.63
2023-01-19T08:35:36.992Z,100627.50
2023-01-19T08:38:05.127Z,100616.53
2023-01-19T08:40:34.853Z,100633.38
2023-01-19T08:43:07.838Z,100633.09
2023-01-19T08:45:36.308Z,100631.69
2023-01-19T08:48:04.218Z,100643.22
2023-01-19T08:50:32.625Z,100638.91
2023-01-19T08:53:00.658Z,100643.78
2023-01-19T08:55:28.808Z,100647.19
2023-01-19T08:57:57.877Z,100642.69
2023-01-19T09:00:27.443Z,100649.47
2023-01-19T09:02:54.967Z,100650.47
2023-01-19T09:05:21.630Z,100648.63
2023-01-19T09:07:48.378Z,100655.59
2023-01-19T09:10:15.646Z,100654.97
2023-01-19T09:12:43.943Z,100662.25
2023-01-19T09:15:12.255Z,100659.38
2023-01-19T09:17:38.767Z,100655.44
2023-01-19T09:20:05.956Z,100660.69
2023-01-19T09:22:33.355Z,100658.63
2023-01-19T09:25:00.239Z,100661.88
2023-01-19T09:27:26.729Z,100664.66
2023-01-19T09:29:53.990Z,100672.53
2023-01-19T09:32:21.299Z,100668.06
2023-01-19T09:34:47.842Z,100669.91
2023-01-19T09:37:16.086Z,100673.56
2023-01-19T09:39:42.733Z,100675.19
2023-01-19T09:42:45.115Z,100677.72
2023-01-19T09:45:19.682Z,100680.53
2023-01-19T09:47:48.516Z,100679.81
2023-01-19T09:50:27.341Z,100679.97
2023-01-19T09:53:23.190Z,100684.03
2023-01-19T09:55:50.107Z,100684.91
2023-01-19T09:58:19.283Z,100687.41
2023-01-19T10:00:53.141Z,100683.78
2023-01-19T10:03:20.711Z,100685.69
2023-01-19T10:05:52.780Z,100688.59
2023-01-19T10:08:40.969Z,100694.50
2023-01-19T10:11:29.138Z,100696.75
2023-01-19T10:13:59.231Z,100696.91
2023-01-19T10:16:41.247Z,100698.41
2023-01-19T10:19:16.982Z,100705.34
2023-01-19T10:21:46.377Z,100706.03
2023-01-19T10:24:12.805Z,100700.63
2023-01-19T10:26:52.479Z,100710.09
2023-01-19T10:29:30.316Z,100710.91
2023-01-19T10:32:12.526Z,100717.50
2023-01-19T10:34:39.494Z,100719.94
2023-01-19T10:37:31.159Z,100715.19
2023-01-19T10:40:15.588Z,100707.44
2023-01-19T10:42:42.436Z,100707.44
2023-01-19T10:45:21.164Z,100720.13
2023-01-19T10:47:49.077Z,100720.44
2023-01-19T10:50:18.637Z,100713.50
2023-01-19T10:52:50.772Z,100718.81
2023-01-19T10:55:24.463Z,100716.75
2023-01-19T10:57:53.013Z,100721.53
2023-01-19T11:00:40.303Z,100721.41
2023-01-19T11:03:29.800Z,100717.31
2023-01-19T11:06:17.655Z,100716.97
2023-01-19T11:08:46.117Z,100711.69
2023-01-19T11:11:13.274Z,100723.94
2023-01-19T11:13:41.609Z,100711.06
2023-01-19T11:16:15.667Z,100718.97
2023-01-19T11:18:43.978Z,100715.25
2023-01-19T11:21:13.811Z,100718.63
2023-01-19T11:23:46.584Z,100717.00
2023-01-19T11:26:24.621Z,100734.16
2023-01-19T11:28:54.669Z,100729.47
2023-01-19T11:31:32.453Z,100725.25
2023-01-19T11:34:21.920Z,100733.28
2023-01-19T11:37:00.229Z,100732.94
2023-01-19T11:39:29.585Z,100734.81
2023-01-19T11:42:02.135Z,100732.03
2023-01-19T11:44:35.271Z,100732.03
2023-01-19T11:47:11.774Z,100728.13
2023-01-19T11:49:51.021Z,100731.34
2023-01-19T11:52:59.114Z,100722.00
2023-01-19T11:55:50.931Z,100731.56
2023-01-19T11:58:19.334Z,100730.78
2023-01-19T12:00:55.031Z,100723.38
2023-01-19T12:03:34.096Z,100727.91
2023-01-19T12:06:06.760Z,100734.69
2023-01-19T12:08:37.096Z,100732.59
2023-01-19T12:11:05.886Z,100725.69
2023-01-19T12:13:33.951Z,100731.44
2023-01-19T12:16:03.983Z,100728.00
2023-01-19T12:18:37.533Z,100731.91
2023-01-19T12:21:04.459Z,100732.72
2023-01-19T12:23:31.165Z,100735.16
2023-01-19T12:26:00.800Z,100732.38
2023-01-19T12:28:34.036Z,100741.84
2023-01-19T12:31:01.608Z,100740.00
2023-01-19T12:33:40.625Z,100740.91
2023-01-19T12:36:10.261Z,100740.75
2023-01-19T12:38:45.489Z,100736.97
2023-01-19T12:41:35.294Z,100739.31
2023-01-19T12:44:11.145Z,100739.50
2023-01-19T12:46:41.958Z,100737.38
2023-01-19T12:49:29.794Z,100734.69
2023-01-19T12:52:28.871Z,100738.09
2023-01-19T12:54:58.559Z,100735.66
2023-01-19T12:57:50.057Z,100733.53
2023-01-19T13:00:22.671Z,100740.94
2023-01-19T13:03:00.742Z,100729.69
2023-01-19T13:05:39.496Z,100740.59
2023-01-19T13:08:06.329Z,100742.84
2023-01-19T13:11:00.619Z,100742.44
2023-01-19T13:13:42.239Z,100748.94
2023-01-19T13:16:18.081Z,100745.63
2023-01-19T13:18:47.886Z,100742.84
2023-01-19T13:21:26.570Z,100734.59
2023-01-19T13:23:56.738Z,100746.53
2023-01-19T13:26:26.365Z,100750.84
2023-01-19T13:28:57.315Z,100751.38
2023-01-19T13:31:25.612Z,100756.94
2023-01-19T13:33:54.685Z,100752.09
2023-01-19T13:36:32.691Z,100754.22
2023-01-19T13:39:04.125Z,100752.41
2023-01-19T13:41:35.551Z,100750.91
2023-01-19T13:44:07.649Z,100762.38
2023-01-19T13:46:34.562Z,100761.22
2023-01-19T13:49:11.280Z,100765.50
2023-01-19T13:51:37.713Z,100766.19
2023-01-19T13:54:05.599Z,100765.53
2023-01-19T13:56:32.252Z,100770.00
2023-01-19T13:59:05.210Z,100774.75
2023-01-19T14:01:32.943Z,100777.28
2023-01-19T14:04:00.046Z,100777.63
2023-01-19T14:06:41.569Z,100780.16
2023-01-19T14:09:16.712Z,100783.59
2023-01-19T14:12:07.384Z,100779.66
2023-01-19T14:14:34.126Z,100786.34
2023-01-19T14:17:04.865Z,100791.28
2023-01-19T14:19:48.220Z,100789.22
2023-01-19T14:22:14.798Z,100798.19
2023-01-19T14:24:41.341Z,100800.38
2023-01-19T14:27:22.852Z,100796.91
2023-01-19T14:29:50.688Z,100797.16
2023-01-19T14:32:25.344Z,100794.84
2023-01-19T14:35:04.267Z,100796.13
2023-01-19T14:37:47.503Z,100802.22
2023-01-19T14:40:20.407Z,100801.19
2023-01-19T14:42:52.873Z,100801.63
2023-01-19T14:45:24.075Z,100796.78
2023-01-19T14:47:55.110Z,100804.97
2023-01-19T14:50:25.824Z,100806.91
2023-01-19T14:53:15.110Z,100808.97
2023-01-19T14:55:49.448Z,100809.66
2023-01-19T14:58:18.018Z,100806.25
2023-01-19T15:00:45.867Z,100806.94
2023-01-19T15:03:12.815Z,100807.84
2023-01-19T15:05:40.979Z,100798.03
2023-01-19T15:08:11.075Z,100797.88
2023-01-19T15:10:37.700Z,100801.66
2023-01-19T15:13:04.834Z,100799.91
2023-01-19T15:15:33.663Z,100802.63
2023-01-19T15:18:05.163Z,100813.53
2023-01-19T15:20:31.570Z,100809.34
2023-01-19T15:22:58.155Z,100809.75
2023-01-19T15:25:27.833Z,100817.72
2023-01-19T15:27:58.504Z,100816.88
2023-01-19T15:30:31.103Z,100829.63
2023-01-19T15:32:58.907Z,100829.03
2023-01-19T15:35:26.458Z,100837.63
2023-01-19T15:37:52.916Z,100840.53
2023-01-19T15:40:20.840Z,100843.13
2023-01-19T15:42:47.450Z,100839.88
2023-01-19T15:45:32.971Z,100850.50
2023-01-19T15:48:01.599Z,100848.72
2023-01-19T15:50:28.437Z,100847.75
2023-01-19T15:52:55.100Z,100848.16
2023-01-19T15:55:21.680Z,100848.03
2023-01-19T15:57:48.821Z,100848.25
2023-01-19T16:00:15.878Z,100847.50
2023-01-19T16:02:42.383Z,100852.03
2023-01-19T16:05:09.771Z,100861.25
2023-01-19T16:07:36.313Z,100862.75
2023-01-19T16:10:04.499Z,100864.00
2023-01-19T16:12:31.137Z,100857.09
2023-01-19T16:14:57.705Z,100861.22
2023-01-19T16:17:24.211Z,100866.91
2023-01-19T16:19:50.646Z,100866.09
2023-01-19T16:22:17.212Z,100873.47
2023-01-19T16:24:43.713Z,100871.22
2023-01-19T16:27:10.129Z,100878.97
2023-01-19T16:29:36.736Z,100878.19
2023-01-19T16:32:03.104Z,100885.13
2023-01-19T16:34:29.752Z,100891.59
2023-01-19T16:36:56.179Z,100895.88
2023-01-19T16:39:22.690Z,100894.09
2023-01-19T16:41:49.215Z,100895.31
2023-01-19T16:44:17.025Z,100900.00
2023-01-19T16:46:45.740Z,100905.28
2023-01-19T16:49:15.404Z,100908.34
2023-01-19T16:51:42.374Z,100902.66
2023-01-19T16:54:13.271Z,100902.66
2023-01-19T16:56:39.889Z,100901.22
2023-01-19T16:59:06.342Z,100905.69
2023-01-19T17:01:33.575Z,100916.25
2023-01-19T17:04:00.070Z,100911.59
2023-01-19T17:06:26.710Z,100914.84
2023-01-19T17:08:53.146Z,100923.34
2023-01-19T17:11:23.352Z,100920.53
2023-01-19T17:13:54.317Z,100923.53
2023-01-19T17:16:21.617Z,100924.38
2023-01-19T17:18:48.350Z,100932.66
2023-01-19T17:21:17.840Z,100932.66
2023-01-19T17:23:46.327Z,100934.25
2023-01-19T17:26:13.127Z,100940.53
2023-01-19T17:28:40.071Z,100940.69
2023-01-19T17:31:08.787Z,100941.88
2023-01-19T17:33:35.605Z,100938.00
2023-01-19T17:36:08.783Z,100945.28
2023-01-19T17:38:36.371Z,100942.38
2023-01-19T17:41:02.905Z,100940.53
2023-01-19T17:43:29.347Z,100951.25
2023-01-19T17:45:55.906Z,100950.63
2023-01-19T17:48:22.461Z,100948.59
2023-01-19T17:50:49.098Z,100947.34
2023-01-19T17:53:15.682Z,100944.91
2023-01-19T17:55:42.085Z,100952.81
2023-01-19T17:58:08.691Z,100952.19
2023-01-19T18:00:35.572Z,100947.28
2023-01-19T18:03:02.079Z,100958.88
2023-01-19T18:05:28.702Z,100963.09
2023-01-19T18:07:55.059Z,100960.28
2023-01-19T18:10:21.658Z,100959.47
2023-01-19T18:12:48.193Z,100957.66
2023-01-19T18:15:16.827Z,100968.38
2023-01-19T18:17:43.534Z,100958.66
2023-01-19T18:20:11.046Z,100965.19
2023-01-19T18:22:37.623Z,100965.78
2023-01-19T18:25:04.341Z,100967.22
2023-01-19T18:27:31.032Z,100972.13
2023-01-19T18:29:57.568Z,100974.13
2023-01-19T18:32:25.831Z,100980.03
2023-01-19T18:34:53.988Z,100990.16
2023-01-19T18:37:20.387Z,100987.97
2023-01-19T18:39:46.869Z,100985.34
2023-01-19T18:42:13.400Z,100986.13
2023-01-19T18:44:39.924Z,100981.88
2023-01-19T18:47:06.374Z,100991.59
2023-01-19T18:49:32.885Z,100989.97
2023-01-19T18:51:59.396Z,100983.88
2023-01-19T18:54:25.903Z,100981.88
2023-01-19T18:56:52.459Z,100982.06
2023-01-19T18:59:18.946Z,100983.69
2023-01-19T19:01:45.575Z,100981.06
2023-01-19T19:04:12.109Z,100984.13
2023-01-19T19:06:38.490Z,100990.19
2023-01-19T19:09:05.245Z,100983.75
2023-01-19T19:11:31.852Z,100993.88
2023-01-19T19:14:01.192Z,100995.50
2023-01-19T19:16:28.862Z,100997.97
2023-01-19T19:18:55.613Z,101013.38
2023-01-19T19:21:25.123Z,101005.06
2023-01-19T19:23:56.246Z,101027.78
2023-01-19T19:26:24.526Z,101021.94
2023-01-19T19:28:50.889Z,101029.47
2023-01-19T19:31:20.819Z,101026.63
2023-01-19T19:33:48.598Z,101029.25
2023-01-19T19:36:15.177Z,101038.00
2023-01-19T19:38:42.901Z,101047.31
2023-01-19T19:41:12.585Z,101045.94
2023-01-19T19:43:39.384Z,101050.84
2023-01-19T19:46:08.423Z,101048.59
2023-01-19T19:48:38.192Z,101053.50
2023-01-19T19:51:23.719Z,101060.00
2023-01-19T19:53:51.849Z,101056.16
2023-01-19T19:56:21.223Z,101067.13
2023-01-19T19:58:48.487Z,101069.41
2023-01-19T20:01:17.923Z,101072.03
2023-01-19T20:03:44.638Z,101064.69
2023-01-19T20:06:16.444Z,101066.28
2023-01-19T20:08:43.630Z,101066.69
2023-01-19T20:11:13.369Z,101068.31
2023-01-19T20:13:41.947Z,101070.75
2023-01-19T20:16:11.501Z,101076.81
2023-01-19T20:18:43.410Z,101079.47
2023-01-19T20:21:15.081Z,101086.78
2023-01-19T20:23:42.161Z,101081.69
2023-01-19T20:26:10.576Z,101090.41
2023-01-19T20:28:38.101Z,101095.69
2023-01-19T20:31:15.365Z,101105.25
2023-01-19T20:33:42.833Z,101105.84
2023-01-19T20:36:10.544Z,101106.66
2023-01-19T20:38:37.744Z,101110.94
2023-01-19T20:41:05.489Z,101116.78
2023-01-19T20:43:32.640Z,101118.81
2023-01-19T20:45:59.148Z,101127.91
2023-01-19T20:48:25.909Z,101126.09
2023-01-19T20:51:08.539Z,101120.59
2023-01-19T20:53:35.709Z,101126.72
2023-01-19T20:56:15.292Z,101134.25
2023-01-19T20:58:42.153Z,101139.31
2023-01-19T21:01:21.750Z,101135.25
2023-01-19T21:03:49.051Z,101137.44
2023-01-19T21:06:16.524Z,101132.16
2023-01-19T21:08:43.791Z,101134.00
2023-01-19T21:11:10.832Z,101128.31
2023-01-19T21:13:37.301Z,101129.09
2023-01-19T21:16:04.314Z,101123.03
2023-01-19T21:18:31.183Z,101128.09
2023-01-19T21:20:58.170Z,101129.94
2023-01-19T21:23:26.287Z,101127.47
2023-01-19T21:25:54.833Z,101143.28
2023-01-19T21:28:22.898Z,101136.38
2023-01-19T21:30:50.446Z,101141.88
2023-01-19T21:33:17.333Z,101143.88
2023-01-19T21:35:51.628Z,101146.88
2023-01-19T21:38:18.553Z,101152.56
2023-01-19T21:40:45.352Z,101150.31
2023-01-19T21:43:13.400Z,101149.03
2023-01-19T21:45:43.014Z,101153.06
2023-01-19T21:48:10.016Z,101147.38
2023-01-19T21:50:36.553Z,101145.94
2023-01-19T21:53:03.510Z,101156.69
2023-01-19T21:55:30.077Z,101159.47
2023-01-19T21:57:56.739Z,101160.06
2023-01-19T22:00:23.256Z,101169.97
2023-01-19T22:03:03.130Z,101172.81
2023-01-19T22:05:30.365Z,101172.16
2023-01-19T22:07:56.850Z,101178.81
2023-01-19T22:10:23.374Z,101181.66
2023-01-19T22:12:49.959Z,101181.81
2023-01-19T22:15:16.334Z,101186.66
2023-01-19T22:17:42.721Z,101190.13
2023-01-19T22:20:09.927Z,101199.66
2023-01-19T22:22:36.411Z,101198.66
2023-01-19T22:25:04.382Z,101207.34
2023-01-19T22:27:33.378Z,101207.16
2023-01-19T22:29:59.954Z,101205.34
2023-01-19T22:32:26.386Z,101212.25
2023-01-19T22:34:52.854Z,101213.91
2023-01-19T22:37:19.262Z,101215.69
2023-01-19T22:39:45.618Z,101217.97
2023-01-19T22:42:12.089Z,101220.41
2023-01-19T22:44:38.715Z,101218.41
2023-01-19T22:47:05.116Z,101216.97
2023-01-19T22:49:31.597Z,101212.31
2023-01-19T22:51:58.168Z,101212.97
2023-01-19T22:54:24.722Z,101212.13
2023-01-19T22:56:51.179Z,101211.13
2023-01-19T22:59:17.714Z,101216.59
2023-01-19T23:01:44.422Z,101223.03
2023-01-19T23:04:14.492Z,101224.88
2023-01-19T23:06:40.877Z,101218.34
2023-01-19T23:09:14.223Z,101222.59
2023-01-19T23:11:43.480Z,101221.81
2023-01-19T23:14:14.600Z,101220.97
2023-01-19T23:16:41.414Z,101223.81
2023-01-19T23:19:08.081Z,101220.34
2023-01-19T23:21:34.707Z,101215.63
2023-01-19T23:24:03.028Z,101217.47
2023-01-19T23:26:30.784Z,101223.53
2023-01-19T23:29:01.793Z,101220.91
2023-01-19T23:31:34.377Z,101213.63
2023-01-19T23:34:03.610Z,101215.47
2023-01-19T23:36:32.495Z,101219.91
2023-01-19T23:39:02.750Z,101212.38
2023-01-19T23:41:31.011Z,101218.84
2023-01-19T23:43:57.461Z,101222.03
2023-01-19T23:46:24.452Z,101223.22
2023-01-19T23:48:51.017Z,101231.50
2023-01-19T23:51:21.370Z,101226.38
2023-01-19T23:53:48.515Z,101230.41
2023-01-19T23:56:22.564Z,101221.06
2023-01-19T23:59:02.852Z,101229.97
